sensor_id;sensor_type;location;lat;lon;timestamp;pressure;altitude;pressure_sealevel;temperature;humidity
66495;BME280;53319;51.982;5.916;2022-07-23T00:00:04;101769.66;;;22.45;95.46
66495;BME280;53319;51.982;5.916;2022-07-23T00:02:33;101776.94;;;22.43;95.15
66495;BME280;53319;51.982;5.916;2022-07-23T00:05:03;101769.31;;;22.50;94.90
66495;BME280;53319;51.982;5.916;2022-07-23T00:07:32;101767.97;;;22.33;95.48
66495;BME280;53319;51.982;5.916;2022-07-23T00:10:01;101779.22;;;22.25;95.43
66495;BME280;53319;51.982;5.916;2022-07-23T00:12:30;101775.94;;;22.21;95.86
66495;BME280;53319;51.982;5.916;2022-07-23T00:14:59;101771.56;;;22.20;95.86
66495;BME280;53319;51.982;5.916;2022-07-23T00:17:30;101776.91;;;22.20;97.63
66495;BME280;53319;51.982;5.916;2022-07-23T00:19:59;101774.38;;;22.19;97.70
66495;BME280;53319;51.982;5.916;2022-07-23T00:22:28;101779.81;;;22.17;98.18
66495;BME280;53319;51.982;5.916;2022-07-23T00:24:57;101766.97;;;22.11;96.96
66495;BME280;53319;51.982;5.916;2022-07-23T00:27:26;101771.81;;;22.17;98.90
66495;BME280;53319;51.982;5.916;2022-07-23T00:29:55;101764.06;;;22.14;98.31
66495;BME280;53319;51.982;5.916;2022-07-23T00:32:24;101764.56;;;22.08;97.04
66495;BME280;53319;51.982;5.916;2022-07-23T00:34:55;101757.88;;;22.02;98.21
66495;BME280;53319;51.982;5.916;2022-07-23T00:37:24;101759.53;;;22.03;97.80
66495;BME280;53319;51.982;5.916;2022-07-23T00:39:53;101763.66;;;21.96;97.16
66495;BME280;53319;51.982;5.916;2022-07-23T00:42:22;101763.19;;;21.91;97.92
66495;BME280;53319;51.982;5.916;2022-07-23T00:44:51;101770.19;;;21.92;100.00
66495;BME280;53319;51.982;5.916;2022-07-23T00:47:20;101754.81;;;21.95;99.98
66495;BME280;53319;51.982;5.916;2022-07-23T00:49:48;101757.38;;;21.97;100.00
66495;BME280;53319;51.982;5.916;2022-07-23T00:52:20;101756.88;;;21.92;100.00
66495;BME280;53319;51.982;5.916;2022-07-23T00:54:49;101759.28;;;21.84;100.00
66495;BME280;53319;51.982;5.916;2022-07-23T00:57:18;101748.13;;;21.78;100.00
66495;BME280;53319;51.982;5.916;2022-07-23T00:59:47;101754.66;;;21.74;100.00
66495;BME280;53319;51.982;5.916;2022-07-23T01:02:17;101757.31;;;21.74;100.00
66495;BME280;53319;51.982;5.916;2022-07-23T01:04:46;101752.84;;;21.75;100.00
66495;BME280;53319;51.982;5.916;2022-07-23T01:07:16;101749.56;;;21.71;100.00
66495;BME280;53319;51.982;5.916;2022-07-23T01:09:49;101745.66;;;21.64;100.00
66495;BME280;53319;51.982;5.916;2022-07-23T01:12:18;101760.81;;;21.64;100.00
66495;BME280;53319;51.982;5.916;2022-07-23T01:14:53;101751.13;;;21.63;100.00
66495;BME280;53319;51.982;5.916;2022-07-23T01:17:23;101746.34;;;21.55;100.00
66495;BME280;53319;51.982;5.916;2022-07-23T01:19:52;101741.69;;;21.46;100.00
66495;BME280;53319;51.982;5.916;2022-07-23T01:22:22;101745.00;;;21.49;100.00
66495;BME280;53319;51.982;5.916;2022-07-23T01:24:54;101740.22;;;21.41;100.00
66495;BME280;53319;51.982;5.916;2022-07-23T01:27:25;101745.56;;;21.41;100.00
66495;BME280;53319;51.982;5.916;2022-07-23T01:30:00;101736.25;;;21.47;100.00
66495;BME280;53319;51.982;5.916;2022-07-23T01:32:29;101740.22;;;21.41;100.00
66495;BME280;53319;51.982;5.916;2022-07-23T01:34:58;101737.91;;;21.37;100.00
66495;BME280;53319;51.982;5.916;2022-07-23T01:37:27;101739.75;;;21.36;100.00
66495;BME280;53319;51.982;5.916;2022-07-23T01:39:58;101743.25;;;21.37;100.00
66495;BME280;53319;51.982;5.916;2022-07-23T01:42:28;101735.97;;;21.39;100.00
66495;BME280;53319;51.982;5.916;2022-07-23T01:44:57;101741.19;;;21.29;100.00
66495;BME280;53319;51.982;5.916;2022-07-23T01:47:26;101734.25;;;21.26;100.00
66495;BME280;53319;51.982;5.916;2022-07-23T01:49:55;101739.91;;;21.22;100.00
66495;BME280;53319;51.982;5.916;2022-07-23T01:52:41;101737.16;;;21.23;100.00
66495;BME280;53319;51.982;5.916;2022-07-23T01:55:12;101742.97;;;21.29;100.00
66495;BME280;53319;51.982;5.916;2022-07-23T01:57:43;101734.56;;;21.22;100.00
66495;BME280;53319;51.982;5.916;2022-07-23T02:00:13;101742.81;;;21.19;100.00
66495;BME280;53319;51.982;5.916;2022-07-23T02:02:47;101734.84;;;21.30;100.00
66495;BME280;53319;51.982;5.916;2022-07-23T02:05:16;101736.50;;;21.20;100.00
66495;BME280;53319;51.982;5.916;2022-07-23T02:07:45;101743.03;;;21.16;100.00
66495;BME280;53319;51.982;5.916;2022-07-23T02:10:17;101745.22;;;21.11;100.00
66495;BME280;53319;51.982;5.916;2022-07-23T02:12:46;101739.88;;;21.11;100.00
66495;BME280;53319;51.982;5.916;2022-07-23T02:15:15;101741.25;;;21.16;100.00
66495;BME280;53319;51.982;5.916;2022-07-23T02:17:44;101742.56;;;21.22;100.00
66495;BME280;53319;51.982;5.916;2022-07-23T02:20:13;101740.03;;;21.20;100.00
66495;BME280;53319;51.982;5.916;2022-07-23T02:22:43;101736.97;;;21.14;97.97
66495;BME280;53319;51.982;5.916;2022-07-23T02:25:12;101732.09;;;21.07;100.00
66495;BME280;53319;51.982;5.916;2022-07-23T02:27:44;101734.44;;;21.12;100.00
66495;BME280;53319;51.982;5.916;2022-07-23T02:30:13;101729.22;;;21.11;100.00
66495;BME280;53319;51.982;5.916;2022-07-23T02:32:42;101737.66;;;21.04;99.91
66495;BME280;53319;51.982;5.916;2022-07-23T02:35:11;101734.25;;;21.02;100.00
66495;BME280;53319;51.982;5.916;2022-07-23T02:37:41;101726.28;;;21.02;100.00
66495;BME280;53319;51.982;5.916;2022-07-23T02:40:10;101729.00;;;20.89;99.50
66495;BME280;53319;51.982;5.916;2022-07-23T02:42:44;101727.06;;;20.91;100.00
66495;BME280;53319;51.982;5.916;2022-07-23T02:45:13;101734.19;;;20.91;100.00
66495;BME280;53319;51.982;5.916;2022-07-23T02:47:42;101737.47;;;20.95;100.00
66495;BME280;53319;51.982;5.916;2022-07-23T02:50:11;101733.13;;;20.94;100.00
66495;BME280;53319;51.982;5.916;2022-07-23T02:52:41;101732.78;;;20.98;100.00
66495;BME280;53319;51.982;5.916;2022-07-23T02:55:10;101737.03;;;21.01;100.00
66495;BME280;53319;51.982;5.916;2022-07-23T02:57:39;101737.16;;;20.99;100.00
66495;BME280;53319;51.982;5.916;2022-07-23T03:00:12;101737.41;;;20.96;100.00
66495;BME280;53319;51.982;5.916;2022-07-23T03:02:41;101738.22;;;20.97;100.00
66495;BME280;53319;51.982;5.916;2022-07-23T03:05:10;101729.88;;;21.01;100.00
66495;BME280;53319;51.982;5.916;2022-07-23T03:07:39;101741.06;;;21.06;100.00
66495;BME280;53319;51.982;5.916;2022-07-23T03:10:08;101750.88;;;21.06;100.00
66495;BME280;53319;51.982;5.916;2022-07-23T03:12:37;101745.75;;;21.03;100.00
66495;BME280;53319;51.982;5.916;2022-07-23T03:15:08;101737.41;;;20.96;100.00
66495;BME280;53319;51.982;5.916;2022-07-23T03:17:39;101731.06;;;20.97;98.95
66495;BME280;53319;51.982;5.916;2022-07-23T03:20:09;101738.22;;;20.97;100.00
66495;BME280;53319;51.982;5.916;2022-07-23T03:22:39;101741.97;;;20.94;99.08
66495;BME280;53319;51.982;5.916;2022-07-23T03:25:10;101742.19;;;20.91;99.86
66495;BME280;53319;51.982;5.916;2022-07-23T03:27:38;101746.56;;;20.92;100.00
66495;BME280;53319;51.982;5.916;2022-07-23T03:30:10;101741.34;;;20.90;100.00
66495;BME280;53319;51.982;5.916;2022-07-23T03:32:41;101741.25;;;20.92;100.00
66495;BME280;53319;51.982;5.916;2022-07-23T03:35:10;101749.97;;;20.94;100.00
66495;BME280;53319;51.982;5.916;2022-07-23T03:37:48;101736.97;;;20.89;99.69
66495;BME280;53319;51.982;5.916;2022-07-23T03:40:17;101750.91;;;20.93;100.00
66495;BME280;53319;51.982;5.916;2022-07-23T03:42:46;101744.97;;;20.89;100.00
66495;BME280;53319;51.982;5.916;2022-07-23T03:45:15;101744.97;;;20.89;100.00
66495;BME280;53319;51.982;5.916;2022-07-23T03:47:47;101753.44;;;20.83;100.00
66495;BME280;53319;51.982;5.916;2022-07-23T03:50:16;101759.28;;;20.76;99.96
66495;BME280;53319;51.982;5.916;2022-07-23T03:52:44;101759.28;;;20.76;99.12
66495;BME280;53319;51.982;5.916;2022-07-23T03:55:14;101759.88;;;20.68;98.06
66495;BME280;53319;51.982;5.916;2022-07-23T03:57:43;101754.94;;;20.62;98.57
66495;BME280;53319;51.982;5.916;2022-07-23T04:00:13;101766.25;;;20.52;98.68
66495;BME280;53319;51.982;5.916;2022-07-23T04:02:43;101761.84;;;20.64;100.00
66495;BME280;53319;51.982;5.916;2022-07-23T04:05:15;101762.31;;;20.71;100.00
66495;BME280;53319;51.982;5.916;2022-07-23T04:07:47;101766.09;;;20.80;98.57
66495;BME280;53319;51.982;5.916;2022-07-23T04:10:17;101769.72;;;20.79;99.03
66495;BME280;53319;51.982;5.916;2022-07-23T04:12:49;101760.78;;;20.80;98.05
66495;BME280;53319;51.982;5.916;2022-07-23T04:15:18;101759.53;;;20.72;98.57
66495;BME280;53319;51.982;5.916;2022-07-23T04:17:47;101766.09;;;20.80;99.12
66495;BME280;53319;51.982;5.916;2022-07-23T04:20:21;101756.03;;;20.72;98.73
66495;BME280;53319;51.982;5.916;2022-07-23T04:22:56;101760.91;;;20.78;100.00
66495;BME280;53319;51.982;5.916;2022-07-23T04:25:25;101748.00;;;20.85;100.00
66495;BME280;53319;51.982;5.916;2022-07-23T04:27:53;101746.50;;;20.81;100.00
66495;BME280;53319;51.982;5.916;2022-07-23T04:30:23;101752.44;;;20.84;100.00
66495;BME280;53319;51.982;5.916;2022-07-23T04:32:52;101749.91;;;20.83;100.00
66495;BME280;53319;51.982;5.916;2022-07-23T04:35:29;101751.84;;;20.81;100.00
66495;BME280;53319;51.982;5.916;2022-07-23T04:38:08;101761.63;;;20.80;100.00
66495;BME280;53319;51.982;5.916;2022-07-23T04:40:37;101764.41;;;20.79;100.00
66495;BME280;53319;51.982;5.916;2022-07-23T04:43:06;101767.59;;;20.84;100.00
66495;BME280;53319;51.982;5.916;2022-07-23T04:45:41;101761.63;;;20.80;99.35
66495;BME280;53319;51.982;5.916;2022-07-23T04:48:10;101758.78;;;20.70;99.37
66495;BME280;53319;51.982;5.916;2022-07-23T04:50:42;101769.50;;;20.82;100.00
66495;BME280;53319;51.982;5.916;2022-07-23T04:53:22;101760.00;;;20.90;100.00
66495;BME280;53319;51.982;5.916;2022-07-23T04:55:54;101766.69;;;20.96;98.89
66495;BME280;53319;51.982;5.916;2022-07-23T04:58:23;101768.16;;;21.00;100.00
66495;BME280;53319;51.982;5.916;2022-07-23T05:00:52;101761.41;;;21.07;100.00
66495;BME280;53319;51.982;5.916;2022-07-23T05:03:24;101758.41;;;21.12;100.00
66495;BME280;53319;51.982;5.916;2022-07-23T05:05:55;101757.44;;;21.13;100.00
66495;BME280;53319;51.982;5.916;2022-07-23T05:08:25;101762.09;;;21.22;100.00
66495;BME280;53319;51.982;5.916;2022-07-23T05:10:56;101757.72;;;21.21;100.00
66495;BME280;53319;51.982;5.916;2022-07-23T05:13:25;101754.72;;;21.26;100.00
66495;BME280;53319;51.982;5.916;2022-07-23T05:15:54;101765.88;;;21.31;100.00
66495;BME280;53319;51.982;5.916;2022-07-23T05:18:24;101763.94;;;21.33;98.81
66495;BME280;53319;51.982;5.916;2022-07-23T05:20:56;101754.16;;;21.34;99.44
66495;BME280;53319;51.982;5.916;2022-07-23T05:23:24;101768.56;;;21.31;96.26
66495;BME280;53319;51.982;5.916;2022-07-23T05:25:53;101782.13;;;21.28;96.85
66495;BME280;53319;51.982;5.916;2022-07-23T05:28:23;101787.81;;;21.35;98.02
66495;BME280;53319;51.982;5.916;2022-07-23T05:30:53;101788.41;;;21.51;97.51
66495;BME280;53319;51.982;5.916;2022-07-23T05:33:23;101788.59;;;21.61;97.31
66495;BME280;53319;51.982;5.916;2022-07-23T05:35:52;101798.06;;;21.65;96.96
66495;BME280;53319;51.982;5.916;2022-07-23T05:38:31;101800.47;;;21.68;97.21
66495;BME280;53319;51.982;5.916;2022-07-23T05:41:02;101802.72;;;21.86;95.41
66495;BME280;53319;51.982;5.916;2022-07-23T05:43:31;101802.94;;;21.83;94.84
66495;BME280;53319;51.982;5.916;2022-07-23T05:46:06;101801.13;;;21.83;94.43
66495;BME280;53319;51.982;5.916;2022-07-23T05:48:37;101808.03;;;21.86;96.13
66495;BME280;53319;51.982;5.916;2022-07-23T05:51:13;101810.00;;;21.84;93.45
66495;BME280;53319;51.982;5.916;2022-07-23T05:53:44;101806.94;;;21.77;93.04
66495;BME280;53319;51.982;5.916;2022-07-23T05:56:18;101817.09;;;21.72;91.68
66495;BME280;53319;51.982;5.916;2022-07-23T05:58:47;101813.00;;;21.79;93.15
66495;BME280;53319;51.982;5.916;2022-07-23T06:01:18;101821.13;;;21.77;89.71
66495;BME280;53319;51.982;5.916;2022-07-23T06:03:59;101813.84;;;21.80;90.34
66495;BME280;53319;51.982;5.916;2022-07-23T06:06:34;101820.50;;;21.74;91.24
66495;BME280;53319;51.982;5.916;2022-07-23T06:09:06;101828.28;;;21.77;91.79
66495;BME280;53319;51.982;5.916;2022-07-23T06:11:37;101815.53;;;21.81;91.64
66495;BME280;53319;51.982;5.916;2022-07-23T06:14:06;101819.09;;;21.92;90.52
66495;BME280;53319;51.982;5.916;2022-07-23T06:16:49;101819.72;;;21.96;89.18
66495;BME280;53319;51.982;5.916;2022-07-23T06:19:17;101822.50;;;21.94;88.37
66495;BME280;53319;51.982;5.916;2022-07-23T06:21:46;101824.34;;;22.05;90.53
66495;BME280;53319;51.982;5.916;2022-07-23T06:24:19;101811.97;;;22.04;87.70
66495;BME280;53319;51.982;5.916;2022-07-23T06:26:49;101818.91;;;22.18;89.05
66495;BME280;53319;51.982;5.916;2022-07-23T06:29:18;101820.97;;;22.26;90.25
66495;BME280;53319;51.982;5.916;2022-07-23T06:31:47;101826.19;;;22.27;90.54
66495;BME280;53319;51.982;5.916;2022-07-23T06:34:16;101824.09;;;22.08;87.41
66495;BME280;53319;51.982;5.916;2022-07-23T06:36:45;101825.09;;;22.19;89.89
66495;BME280;53319;51.982;5.916;2022-07-23T06:39:14;101826.72;;;22.33;90.53
66495;BME280;53319;51.982;5.916;2022-07-23T06:41:50;101826.28;;;22.15;83.95
66495;BME280;53319;51.982;5.916;2022-07-23T06:44:19;101828.75;;;22.29;86.22
66495;BME280;53319;51.982;5.916;2022-07-23T06:46:48;101838.34;;;22.32;85.98
66495;BME280;53319;51.982;5.916;2022-07-23T06:49:18;101838.34;;;22.32;84.79
66495;BME280;53319;51.982;5.916;2022-07-23T06:51:47;101842.22;;;22.27;84.41
66495;BME280;53319;51.982;5.916;2022-07-23T06:54:16;101844.88;;;22.27;84.60
66495;BME280;53319;51.982;5.916;2022-07-23T06:56:44;101850.38;;;22.37;85.29
66495;BME280;53319;51.982;5.916;2022-07-23T06:59:17;101848.47;;;21.92;86.88
66495;BME280;53319;51.982;5.916;2022-07-23T07:01:46;101844.13;;;22.03;84.44
66495;BME280;53319;51.982;5.916;2022-07-23T07:04:15;101838.28;;;21.98;84.08
66495;BME280;53319;51.982;5.916;2022-07-23T07:06:44;101846.72;;;21.80;83.41
66495;BME280;53319;51.982;5.916;2022-07-23T07:09:13;101852.16;;;22.14;83.04
66495;BME280;53319;51.982;5.916;2022-07-23T07:11:42;101852.72;;;21.95;87.24
66495;BME280;53319;51.982;5.916;2022-07-23T07:14:11;101854.03;;;21.54;86.76
66495;BME280;53319;51.982;5.916;2022-07-23T07:16:42;101844.25;;;22.12;87.47
66495;BME280;53319;51.982;5.916;2022-07-23T07:19:11;101848.09;;;22.33;79.36
66495;BME280;53319;51.982;5.916;2022-07-23T07:21:40;101849.06;;;22.54;82.67
66495;BME280;53319;51.982;5.916;2022-07-23T07:24:09;101843.47;;;22.57;81.35
66495;BME280;53319;51.982;5.916;2022-07-23T07:26:38;101850.66;;;22.57;84.87
66495;BME280;53319;51.982;5.916;2022-07-23T07:29:07;101848.31;;;22.75;80.43
66495;BME280;53319;51.982;5.916;2022-07-23T07:31:36;101846.97;;;22.92;80.39
66495;BME280;53319;51.982;5.916;2022-07-23T07:34:08;101845.25;;;23.02;79.23
66495;BME280;53319;51.982;5.916;2022-07-23T07:36:36;101846.34;;;22.99;78.30
66495;BME280;53319;51.982;5.916;2022-07-23T07:39:05;101851.56;;;23.12;80.58
66495;BME280;53319;51.982;5.916;2022-07-23T07:41:36;101849.53;;;23.16;77.76
66495;BME280;53319;51.982;5.916;2022-07-23T07:44:05;101851.94;;;23.19;78.78
66495;BME280;53319;51.982;5.916;2022-07-23T07:46:34;101854.22;;;23.24;77.57
66495;BME280;53319;51.982;5.916;2022-07-23T07:49:03;101853.75;;;23.30;76.49
66495;BME280;53319;51.982;5.916;2022-07-23T07:51:34;101852.41;;;23.36;75.82
66495;BME280;53319;51.982;5.916;2022-07-23T07:54:03;101863.28;;;22.77;71.78
66495;BME280;53319;51.982;5.916;2022-07-23T07:56:32;101867.78;;;22.66;71.70
66495;BME280;53319;51.982;5.916;2022-07-23T07:59:01;101869.81;;;22.62;73.56
66495;BME280;53319;51.982;5.916;2022-07-23T08:01:30;101873.06;;;22.99;76.89
66495;BME280;53319;51.982;5.916;2022-07-23T08:03:59;101880.38;;;23.20;75.85
66495;BME280;53319;51.982;5.916;2022-07-23T08:06:28;101877.91;;;23.40;75.80
66495;BME280;53319;51.982;5.916;2022-07-23T08:08:59;101876.88;;;23.52;74.53
66495;BME280;53319;51.982;5.916;2022-07-23T08:11:28;101881.31;;;23.42;69.89
66495;BME280;53319;51.982;5.916;2022-07-23T08:13:57;101881.72;;;23.14;71.81
66495;BME280;53319;51.982;5.916;2022-07-23T08:16:26;101884.66;;;23.55;75.66
66495;BME280;53319;51.982;5.916;2022-07-23T08:18:55;101877.47;;;23.67;74.47
66495;BME280;53319;51.982;5.916;2022-07-23T08:21:23;101878.66;;;23.30;74.23
66495;BME280;53319;51.982;5.916;2022-07-23T08:23:52;101880.63;;;23.61;73.63
66495;BME280;53319;51.982;5.916;2022-07-23T08:26:24;101878.69;;;23.84;74.77
66495;BME280;53319;51.982;5.916;2022-07-23T08:28:53;101886.78;;;24.05;69.32
66495;BME280;53319;51.982;5.916;2022-07-23T08:31:22;101889.53;;;23.61;70.47
66495;BME280;53319;51.982;5.916;2022-07-23T08:33:50;101892.78;;;23.65;68.65
66495;BME280;53319;51.982;5.916;2022-07-23T08:36:21;101890.72;;;22.91;71.72
66495;BME280;53319;51.982;5.916;2022-07-23T08:38:49;101886.09;;;23.04;72.51
66495;BME280;53319;51.982;5.916;2022-07-23T08:41:19;101877.44;;;23.35;75.23
66495;BME280;53319;51.982;5.916;2022-07-23T08:43:51;101885.75;;;23.53;68.74
66495;BME280;53319;51.982;5.916;2022-07-23T08:46:20;101896.81;;;23.59;69.97
66495;BME280;53319;51.982;5.916;2022-07-23T08:48:50;101896.00;;;23.80;70.32
66495;BME280;53319;51.982;5.916;2022-07-23T08:51:20;101896.44;;;23.53;69.40
66495;BME280;53319;51.982;5.916;2022-07-23T08:53:50;101891.06;;;23.09;69.56
66495;BME280;53319;51.982;5.916;2022-07-23T08:56:18;101890.47;;;23.17;66.94
66495;BME280;53319;51.982;5.916;2022-07-23T08:58:47;101894.69;;;23.30;68.15
66495;BME280;53319;51.982;5.916;2022-07-23T09:01:19;101890.81;;;23.23;70.66
66495;BME280;53319;51.982;5.916;2022-07-23T09:03:48;101888.94;;;23.79;70.96
66495;BME280;53319;51.982;5.916;2022-07-23T09:06:17;101887.94;;;24.12;70.70
66495;BME280;53319;51.982;5.916;2022-07-23T09:08:46;101893.09;;;24.04;67.08
66495;BME280;53319;51.982;5.916;2022-07-23T09:11:16;101888.16;;;24.42;69.49
66495;BME280;53319;51.982;5.916;2022-07-23T09:13:46;101888.75;;;24.55;65.64
66495;BME280;53319;51.982;5.916;2022-07-23T09:16:20;101886.16;;;24.65;67.18
66495;BME280;53319;51.982;5.916;2022-07-23T09:18:53;101894.63;;;24.70;63.47
66495;BME280;53319;51.982;5.916;2022-07-23T09:21:24;101886.22;;;24.84;64.51
66495;BME280;53319;51.982;5.916;2022-07-23T09:23:56;101887.81;;;24.97;65.20
66495;BME280;53319;51.982;5.916;2022-07-23T09:26:29;101886.03;;;25.17;65.74
66495;BME280;53319;51.982;5.916;2022-07-23T09:29:02;101890.41;;;25.08;61.75
66495;BME280;53319;51.982;5.916;2022-07-23T09:31:43;101888.28;;;25.02;63.79
66495;BME280;53319;51.982;5.916;2022-07-23T09:34:15;101885.38;;;24.53;63.20
66495;BME280;53319;51.982;5.916;2022-07-23T09:36:46;101885.25;;;24.55;63.39
66495;BME280;53319;51.982;5.916;2022-07-23T09:39:21;101890.91;;;24.30;60.38
66495;BME280;53319;51.982;5.916;2022-07-23T09:41:53;101892.72;;;24.82;64.02
66495;BME280;53319;51.982;5.916;2022-07-23T09:44:22;101894.97;;;24.56;58.01
66495;BME280;53319;51.982;5.916;2022-07-23T09:46:58;101885.81;;;24.58;54.51
66495;BME280;53319;51.982;5.916;2022-07-23T09:49:27;101893.69;;;23.87;55.41
66495;BME280;53319;51.982;5.916;2022-07-23T09:51:59;101893.97;;;24.26;60.08
66495;BME280;53319;51.982;5.916;2022-07-23T09:54:31;101894.47;;;24.19;59.63
66495;BME280;53319;51.982;5.916;2022-07-23T09:57:04;101886.84;;;23.94;63.22
66495;BME280;53319;51.982;5.916;2022-07-23T09:59:37;101889.34;;;24.59;64.45
66495;BME280;53319;51.982;5.916;2022-07-23T10:02:10;101890.06;;;24.82;59.99
66495;BME280;53319;51.982;5.916;2022-07-23T10:05:09;101887.50;;;25.31;60.85
66495;BME280;53319;51.982;5.916;2022-07-23T10:08:17;101889.88;;;24.52;57.91
66495;BME280;53319;51.982;5.916;2022-07-23T10:11:06;101889.03;;;24.52;57.73
66495;BME280;53319;51.982;5.916;2022-07-23T10:13:54;101882.81;;;25.23;61.94
66495;BME280;53319;51.982;5.916;2022-07-23T10:16:38;101880.19;;;25.52;60.99
66495;BME280;53319;51.982;5.916;2022-07-23T10:19:10;101876.66;;;25.42;58.77
66495;BME280;53319;51.982;5.916;2022-07-23T10:21:42;101873.84;;;25.83;60.78
66495;BME280;53319;51.982;5.916;2022-07-23T10:24:20;101882.00;;;26.20;56.71
66495;BME280;53319;51.982;5.916;2022-07-23T10:27:02;101879.16;;;26.32;55.41
66495;BME280;53319;51.982;5.916;2022-07-23T10:29:42;101874.88;;;26.39;52.92
66495;BME280;53319;51.982;5.916;2022-07-23T10:32:17;101878.38;;;26.49;55.23
66495;BME280;53319;51.982;5.916;2022-07-23T10:34:52;101876.16;;;26.35;55.44
66495;BME280;53319;51.982;5.916;2022-07-23T10:37:30;101875.53;;;25.94;52.38
66495;BME280;53319;51.982;5.916;2022-07-23T10:40:14;101877.94;;;25.87;55.63
66495;BME280;53319;51.982;5.916;2022-07-23T10:42:45;101874.13;;;25.89;57.22
66495;BME280;53319;51.982;5.916;2022-07-23T10:45:29;101873.31;;;26.46;54.19
66495;BME280;53319;51.982;5.916;2022-07-23T10:48:16;101876.44;;;26.79;53.80
66495;BME280;53319;51.982;5.916;2022-07-23T10:51:09;101874.38;;;25.96;52.99
66495;BME280;53319;51.982;5.916;2022-07-23T10:53:55;101867.13;;;26.36;52.33
66495;BME280;53319;51.982;5.916;2022-07-23T10:56:49;101872.25;;;26.00;50.02
66495;BME280;53319;51.982;5.916;2022-07-23T10:59:18;101870.53;;;26.38;53.33
66495;BME280;53319;51.982;5.916;2022-07-23T11:01:47;101867.44;;;26.60;53.97
66495;BME280;53319;51.982;5.916;2022-07-23T11:04:16;101873.66;;;26.99;52.84
66495;BME280;53319;51.982;5.916;2022-07-23T11:07:11;101868.91;;;27.38;50.93
66495;BME280;53319;51.982;5.916;2022-07-23T11:09:41;101871.06;;;27.35;46.26
66495;BME280;53319;51.982;5.916;2022-07-23T11:12:32;101877.34;;;27.25;46.82
66495;BME280;53319;51.982;5.916;2022-07-23T11:15:04;101877.34;;;27.43;47.91
66495;BME280;53319;51.982;5.916;2022-07-23T11:17:35;101870.94;;;27.26;44.36
66495;BME280;53319;51.982;5.916;2022-07-23T11:20:16;101868.91;;;27.10;44.64
66495;BME280;53319;51.982;5.916;2022-07-23T11:22:55;101868.19;;;26.90;46.64
66495;BME280;53319;51.982;5.916;2022-07-23T11:25:33;101866.75;;;26.58;47.41
66495;BME280;53319;51.982;5.916;2022-07-23T11:28:11;101867.41;;;26.80;45.51
66495;BME280;53319;51.982;5.916;2022-07-23T11:30:42;101877.88;;;26.73;45.86
66495;BME280;53319;51.982;5.916;2022-07-23T11:33:21;101876.44;;;27.71;46.58
66495;BME280;53319;51.982;5.916;2022-07-23T11:36:00;101871.34;;;27.86;45.70
66495;BME280;53319;51.982;5.916;2022-07-23T11:38:33;101875.94;;;28.38;42.49
66495;BME280;53319;51.982;5.916;2022-07-23T11:41:03;101874.38;;;29.04;43.21
66495;BME280;53319;51.982;5.916;2022-07-23T11:43:36;101868.53;;;28.66;44.02
66495;BME280;53319;51.982;5.916;2022-07-23T11:46:09;101874.81;;;29.59;42.78
66495;BME280;53319;51.982;5.916;2022-07-23T11:48:38;101873.34;;;29.56;41.81
66495;BME280;53319;51.982;5.916;2022-07-23T11:51:07;101871.97;;;29.44;42.36
66495;BME280;53319;51.982;5.916;2022-07-23T11:53:38;101865.06;;;29.66;42.82
66495;BME280;53319;51.982;5.916;2022-07-23T11:56:09;101875.03;;;29.90;39.23
66495;BME280;53319;51.982;5.916;2022-07-23T11:58:39;101867.03;;;30.30;41.39
66495;BME280;53319;51.982;5.916;2022-07-23T12:01:23;101862.56;;;30.93;38.17
66495;BME280;53319;51.982;5.916;2022-07-23T12:03:52;101870.22;;;31.21;37.46
66495;BME280;53319;51.982;5.916;2022-07-23T12:06:21;101866.78;;;31.50;37.79
66495;BME280;53319;51.982;5.916;2022-07-23T12:08:52;101872.88;;;30.98;35.88
66495;BME280;53319;51.982;5.916;2022-07-23T12:11:21;101869.44;;;30.73;39.48
66495;BME280;53319;51.982;5.916;2022-07-23T12:13:56;101863.72;;;29.95;38.23
66495;BME280;53319;51.982;5.916;2022-07-23T12:16:25;101872.84;;;30.02;39.28
66495;BME280;53319;51.982;5.916;2022-07-23T12:18:56;101870.44;;;29.82;37.78
66495;BME280;53319;51.982;5.916;2022-07-23T12:21:25;101865.59;;;30.59;40.64
66495;BME280;53319;51.982;5.916;2022-07-23T12:24:08;101863.56;;;31.00;40.02
66495;BME280;53319;51.982;5.916;2022-07-23T12:26:37;101864.69;;;30.18;38.57
66495;BME280;53319;51.982;5.916;2022-07-23T12:29:06;101863.38;;;30.06;39.50
66495;BME280;53319;51.982;5.916;2022-07-23T12:31:35;101858.34;;;30.59;38.47
66495;BME280;53319;51.982;5.916;2022-07-23T12:34:13;101861.91;;;30.91;38.14
66495;BME280;53319;51.982;5.916;2022-07-23T12:36:43;101860.19;;;30.98;37.17
66495;BME280;53319;51.982;5.916;2022-07-23T12:39:29;101859.81;;;30.14;37.08
66495;BME280;53319;51.982;5.916;2022-07-23T12:41:58;101859.66;;;30.63;39.67
66495;BME280;53319;51.982;5.916;2022-07-23T12:44:27;101863.84;;;30.18;37.11
66495;BME280;53319;51.982;5.916;2022-07-23T12:46:56;101850.09;;;30.44;40.31
66495;BME280;53319;51.982;5.916;2022-07-23T12:49:25;101852.41;;;29.99;37.25
66495;BME280;53319;51.982;5.916;2022-07-23T12:51:54;101846.13;;;29.82;38.67
66495;BME280;53319;51.982;5.916;2022-07-23T12:54:29;101845.03;;;30.41;39.57
66495;BME280;53319;51.982;5.916;2022-07-23T12:56:57;101849.59;;;30.41;38.98
66495;BME280;53319;51.982;5.916;2022-07-23T12:59:30;101845.47;;;29.56;38.00
66495;BME280;53319;51.982;5.916;2022-07-23T13:01:59;101838.13;;;30.30;39.58
66495;BME280;53319;51.982;5.916;2022-07-23T13:04:28;101839.44;;;30.51;39.07
66495;BME280;53319;51.982;5.916;2022-07-23T13:07:00;101842.41;;;30.08;37.82
66495;BME280;53319;51.982;5.916;2022-07-23T13:09:33;101843.50;;;30.47;40.01